Huvudsida
METAR-TAF:

METAR-TAF

Flygplatser :

Hang Nadim Airport

Batam, Indonesien

latitud: 01-07-15N, longitud: 104-07-07E, höjd: 38 m

Aktuellt väderrapport

Denna rapport gjordes för 42 minuter sedan, klockan 07:00 UTC
Vind 4 kt från nord
Temperatur 30°C
Fuktighet 75%
Tryck 1010 hPa
Sikt 10 km eller mer
Få moln på en höjd av 1400 ft

METAR: WIDD 150700Z 35004KT 9999 FEW014 30/25 Q1010 NOSIG

Tid: 14:42 (07:42 UTC)

Väderprognos

Denna rapport gjordes för 2 timmar och 42 minuter sedan, klockan 05:00 UTC
Prognos gäller från 15 kl. 06 UTC till 16 kl. 06 UTC
Vind 6 kt från nord
Sikt: 9000 m
Spridda moln på en höjd av 1400 ft
Temporärt
från 15 kl. 07 UTC till 15 kl. 10 UTC
Sikt: 6000 m
Få moln på en höjd av 1300 ft, Cumulonimbus.
åska, lätt regn

TAF: WIDD 150500Z 1506/1606 35006KT 9000 SCT014 TEMPO 1507/1510 6000 -TSRA FEW013CB

Aktuella väderrapporter och prognoser från 4000 flygplatser (METAR- och TAF-rapporter).

De tillgängliga stationerna syns som gula och röda prickar på kartan.

För musen över prickarna för att se namnen på stationerna.

Klicka sedan för att få väderrapporter och prognoser.

För att ändra kartan: Klicka på de gröna knapparna med ett svart kors på för att zooma in; den gröna knappen med ett streck på för att zooma ut; eller på de gröna pilarna för angränsande kartor.


METAR-TAF: